createdAt,value
2022-09-11T00:01:16.757Z,20.37
2022-09-11T00:03:47.010Z,21.22
2022-09-11T00:06:28.458Z,21.07
2022-09-11T00:09:00.961Z,20.99
2022-09-11T00:11:31.186Z,20.93
2022-09-11T00:13:59.924Z,20.79
2022-09-11T00:16:29.754Z,20.81
2022-09-11T00:19:00.213Z,21.46
2022-09-11T00:21:29.402Z,21.41
2022-09-11T00:23:59.539Z,20.96
2022-09-11T00:26:28.032Z,20.80
2022-09-11T00:28:57.336Z,20.67
2022-09-11T00:31:28.212Z,20.85
2022-09-11T00:33:56.976Z,20.86
2022-09-11T00:36:26.602Z,21.03
2022-09-11T00:38:55.817Z,21.00
2022-09-11T00:41:28.237Z,20.87
2022-09-11T00:44:02.543Z,20.30
2022-09-11T00:46:35.274Z,21.01
2022-09-11T00:49:11.601Z,21.19
2022-09-11T00:51:41.119Z,20.59
2022-09-11T00:54:12.375Z,20.77
2022-09-11T00:56:43.155Z,20.45
2022-09-11T00:59:12.472Z,20.34
2022-09-11T01:01:41.628Z,20.42
2022-09-11T01:04:10.494Z,21.08
2022-09-11T01:06:38.737Z,20.49
2022-09-11T01:09:06.972Z,20.47
2022-09-11T01:11:46.057Z,20.06
2022-09-11T01:14:24.711Z,20.69
2022-09-11T01:16:57.617Z,20.38
2022-09-11T01:19:38.343Z,20.22
2022-09-11T01:22:22.244Z,20.09
2022-09-11T01:25:02.139Z,20.40
2022-09-11T01:27:39.854Z,20.09
2022-09-11T01:30:11.869Z,20.71
2022-09-11T01:33:02.956Z,20.56
2022-09-11T01:35:41.185Z,20.41
2022-09-11T01:38:14.797Z,20.08
2022-09-11T01:40:49.255Z,20.02
2022-09-11T01:43:22.244Z,20.31
2022-09-11T01:45:52.062Z,20.55
2022-09-11T01:48:24.034Z,19.89
2022-09-11T01:50:54.184Z,20.38
2022-09-11T01:53:24.277Z,19.88
2022-09-11T01:55:55.606Z,20.42
2022-09-11T01:58:28.775Z,20.36
2022-09-11T02:01:00.630Z,20.30
2022-09-11T02:03:32.851Z,20.37
2022-09-11T02:06:02.970Z,20.59
2022-09-11T02:08:36.135Z,20.85
2022-09-11T02:11:07.130Z,20.15
2022-09-11T02:13:42.112Z,20.21
2022-09-11T02:16:17.819Z,20.56
2022-09-11T02:18:53.949Z,20.39
2022-09-11T02:21:22.452Z,20.68
2022-09-11T02:23:50.870Z,20.17
2022-09-11T02:26:19.891Z,19.93
2022-09-11T02:28:49.495Z,19.63
2022-09-11T02:31:19.904Z,19.50
2022-09-11T02:33:48.842Z,20.46
2022-09-11T02:36:31.047Z,20.19
2022-09-11T02:39:11.451Z,19.34
2022-09-11T02:41:47.677Z,20.24
2022-09-11T02:44:25.348Z,20.55
2022-09-11T02:47:06.426Z,20.59
2022-09-11T02:49:44.500Z,19.72
2022-09-11T02:52:21.308Z,21.17
2022-09-11T02:54:55.251Z,20.73
2022-09-11T02:57:29.949Z,19.91
2022-09-11T03:00:01.317Z,20.85
2022-09-11T03:02:30.925Z,21.24
2022-09-11T03:04:59.362Z,21.04
2022-09-11T03:07:27.584Z,20.45
2022-09-11T03:09:55.875Z,21.23
2022-09-11T03:12:24.136Z,21.04
2022-09-11T03:14:52.404Z,20.62
2022-09-11T03:17:22.086Z,20.43
2022-09-11T03:19:50.625Z,20.58
2022-09-11T03:22:18.851Z,21.07
2022-09-11T03:24:48.058Z,20.51
2022-09-11T03:27:17.257Z,20.02
2022-09-11T03:29:46.499Z,20.77
2022-09-11T03:32:16.097Z,20.42
2022-09-11T03:34:47.326Z,20.51
2022-09-11T03:37:15.946Z,20.65
2022-09-11T03:39:44.436Z,20.40
2022-09-11T03:42:13.243Z,20.24
2022-09-11T03:44:41.772Z,20.50
2022-09-11T03:47:09.970Z,20.94
2022-09-11T03:49:38.186Z,20.51
2022-09-11T03:52:07.878Z,20.22
2022-09-11T03:54:36.139Z,20.56
2022-09-11T03:57:04.627Z,20.01
2022-09-11T03:59:32.817Z,20.26
2022-09-11T04:02:01.441Z,20.45
2022-09-11T04:04:29.765Z,20.28
2022-09-11T04:06:58.327Z,20.42
2022-09-11T04:09:27.935Z,20.80
2022-09-11T04:11:56.215Z,20.04
2022-09-11T04:14:24.492Z,20.74
2022-09-11T04:16:53.828Z,20.65
2022-09-11T04:19:23.634Z,20.25
2022-09-11T04:21:52.318Z,20.78
2022-09-11T04:24:20.572Z,20.44
2022-09-11T04:26:50.215Z,20.43
2022-09-11T04:29:18.799Z,20.00
2022-09-11T04:31:47.075Z,20.14
2022-09-11T04:34:15.436Z,20.27
2022-09-11T04:36:43.806Z,20.15
2022-09-11T04:39:12.511Z,20.40
2022-09-11T04:41:40.829Z,19.98
2022-09-11T04:44:10.644Z,20.65
2022-09-11T04:46:39.025Z,20.89
2022-09-11T04:49:08.269Z,20.29
2022-09-11T04:51:38.222Z,20.09
2022-09-11T04:54:07.016Z,20.10
2022-09-11T04:56:37.863Z,20.03
2022-09-11T04:59:09.600Z,20.54
2022-09-11T05:01:39.659Z,20.43
2022-09-11T05:04:08.660Z,20.75
2022-09-11T05:06:38.011Z,20.07
2022-09-11T05:09:08.144Z,20.50
2022-09-11T05:11:36.683Z,20.45
2022-09-11T05:14:04.939Z,20.30
2022-09-11T05:16:34.376Z,20.10
2022-09-11T05:19:05.888Z,20.32
2022-09-11T05:21:34.725Z,20.24
2022-09-11T05:24:04.488Z,19.48
2022-09-11T05:26:34.982Z,19.84
2022-09-11T05:29:03.490Z,20.11
2022-09-11T05:31:32.629Z,19.94
2022-09-11T05:34:01.293Z,20.49
2022-09-11T05:36:31.873Z,20.11
2022-09-11T05:39:00.138Z,20.44
2022-09-11T05:41:28.523Z,20.52
2022-09-11T05:43:56.748Z,20.48
2022-09-11T05:46:25.652Z,20.44
2022-09-11T05:48:53.939Z,20.27
2022-09-11T05:51:23.058Z,20.79
2022-09-11T05:53:55.648Z,20.69
2022-09-11T05:56:25.420Z,20.87
2022-09-11T05:58:53.692Z,20.40
2022-09-11T06:01:23.990Z,20.49
2022-09-11T06:03:52.636Z,20.24
2022-09-11T06:06:22.386Z,20.62
2022-09-11T06:08:51.847Z,20.33
2022-09-11T06:11:22.562Z,20.58
2022-09-11T06:13:51.285Z,20.73
2022-09-11T06:16:21.233Z,20.29
2022-09-11T06:18:50.517Z,20.49
2022-09-11T06:21:20.501Z,20.10
2022-09-11T06:23:49.288Z,20.29
2022-09-11T06:26:19.583Z,19.64
2022-09-11T06:28:50.824Z,19.67
2022-09-11T06:31:20.750Z,19.74
2022-09-11T06:33:51.008Z,19.45
2022-09-11T06:36:20.615Z,20.24
2022-09-11T06:38:54.406Z,20.31
2022-09-11T06:41:22.783Z,20.06
2022-09-11T06:43:53.235Z,19.78
2022-09-11T06:46:23.381Z,19.82
2022-09-11T06:48:52.717Z,20.20
2022-09-11T06:51:21.891Z,19.83
2022-09-11T06:53:50.378Z,20.12
2022-09-11T06:56:19.494Z,19.61
2022-09-11T06:58:47.996Z,20.13
2022-09-11T07:01:19.607Z,20.48
2022-09-11T07:03:49.655Z,20.26
2022-09-11T07:06:19.919Z,19.93
2022-09-11T07:08:52.154Z,19.81
2022-09-11T07:11:21.018Z,20.30
2022-09-11T07:13:49.367Z,19.94
2022-09-11T07:16:19.025Z,20.67
2022-09-11T07:18:48.567Z,20.54
2022-09-11T07:21:18.770Z,20.42
2022-09-11T07:23:49.384Z,20.47
2022-09-11T07:26:17.675Z,20.53
2022-09-11T07:28:48.772Z,20.56
2022-09-11T07:31:21.221Z,20.28
2022-09-11T07:33:50.730Z,20.64
2022-09-11T07:36:20.737Z,20.92
2022-09-11T07:38:50.204Z,21.28
2022-09-11T07:41:19.751Z,21.30
2022-09-11T07:43:48.265Z,20.80
2022-09-11T07:46:16.578Z,21.09
2022-09-11T07:48:46.186Z,21.13
2022-09-11T07:51:16.261Z,20.97
2022-09-11T07:53:46.151Z,21.09
2022-09-11T07:56:16.424Z,21.13
2022-09-11T07:58:44.766Z,21.01
2022-09-11T08:01:14.724Z,20.15
2022-09-11T08:03:43.639Z,21.19
2022-09-11T08:06:17.923Z,21.55
2022-09-11T08:08:53.438Z,21.27
2022-09-11T08:11:22.559Z,21.55
2022-09-11T08:13:52.053Z,21.55
2022-09-11T08:16:21.022Z,21.13
2022-09-11T08:18:49.506Z,20.97
2022-09-11T08:21:19.583Z,21.62
2022-09-11T08:23:48.993Z,22.04
2022-09-11T08:26:21.817Z,21.91
2022-09-11T08:28:52.094Z,21.14
2022-09-11T08:31:22.440Z,21.10
2022-09-11T08:33:50.591Z,21.14
2022-09-11T08:36:20.801Z,21.90
2022-09-11T08:38:49.115Z,21.93
2022-09-11T08:41:28.679Z,21.71
2022-09-11T08:43:58.767Z,22.34
2022-09-11T08:46:31.001Z,22.24
2022-09-11T08:49:05.320Z,21.62
2022-09-11T08:51:35.392Z,22.24
2022-09-11T08:54:04.209Z,21.26
2022-09-11T08:56:34.524Z,22.82
2022-09-11T08:59:15.093Z,21.73
2022-09-11T09:01:48.407Z,21.65
2022-09-11T09:04:27.512Z,21.73
2022-09-11T09:07:05.118Z,21.21
2022-09-11T09:09:42.410Z,22.04
2022-09-11T09:12:17.573Z,21.26
2022-09-11T09:14:55.513Z,21.41
2022-09-11T09:17:27.387Z,21.84
2022-09-11T09:20:01.508Z,21.41
2022-09-11T09:22:38.548Z,21.60
2022-09-11T09:25:11.970Z,22.10
2022-09-11T09:27:44.253Z,21.86
2022-09-11T09:30:16.722Z,21.96
2022-09-11T09:32:48.719Z,22.35
2022-09-11T09:35:21.043Z,22.48
2022-09-11T09:37:51.244Z,22.03
2022-09-11T09:40:19.922Z,20.63
2022-09-11T09:43:13.430Z,21.31
2022-09-11T09:45:55.560Z,21.15
2022-09-11T09:48:23.890Z,21.78
2022-09-11T09:50:52.456Z,21.82
2022-09-11T09:53:29.675Z,21.75
2022-09-11T09:56:00.211Z,22.52
2022-09-11T09:58:29.747Z,22.78
2022-09-11T10:00:57.927Z,22.82
2022-09-11T10:03:27.013Z,22.93
2022-09-11T10:05:56.603Z,23.68
2022-09-11T10:08:37.081Z,23.69
2022-09-11T10:11:06.949Z,22.83
2022-09-11T10:13:37.972Z,23.07
2022-09-11T10:16:20.464Z,23.13
2022-09-11T10:18:48.819Z,22.33
2022-09-11T10:21:25.855Z,22.71
2022-09-11T10:23:56.849Z,23.01
2022-09-11T10:26:28.961Z,23.13
2022-09-11T10:29:00.972Z,22.88
2022-09-11T10:31:30.137Z,22.89
2022-09-11T10:33:59.699Z,22.91
2022-09-11T10:36:29.220Z,23.60
2022-09-11T10:39:00.004Z,23.21
2022-09-11T10:41:28.940Z,23.06
2022-09-11T10:44:00.453Z,23.35
2022-09-11T10:46:41.331Z,23.44
2022-09-11T10:49:17.563Z,23.76
2022-09-11T10:52:00.017Z,24.17
2022-09-11T10:54:54.942Z,24.63
2022-09-11T10:57:28.114Z,24.78
2022-09-11T11:00:02.131Z,24.91
2022-09-11T11:02:33.182Z,24.85
2022-09-11T11:05:05.365Z,24.62
2022-09-11T11:07:47.339Z,25.73
2022-09-11T11:10:26.118Z,26.28
2022-09-11T11:13:08.101Z,26.07
2022-09-11T11:15:45.703Z,25.57
2022-09-11T11:18:32.817Z,25.43
2022-09-11T11:21:09.681Z,25.68
2022-09-11T11:23:52.583Z,25.94
2022-09-11T11:26:36.851Z,26.36
2022-09-11T11:29:33.627Z,26.17
2022-09-11T11:32:27.900Z,25.29
2022-09-11T11:35:13.768Z,25.93
2022-09-11T11:37:43.729Z,26.11
2022-09-11T11:40:18.723Z,26.20
2022-09-11T11:42:55.965Z,26.36
2022-09-11T11:45:27.929Z,26.47
2022-09-11T11:47:56.789Z,26.14
2022-09-11T11:50:31.569Z,26.72
2022-09-11T11:53:07.280Z,26.85
2022-09-11T11:55:43.646Z,27.45
2022-09-11T11:58:22.610Z,28.00
2022-09-11T12:00:55.941Z,27.64
2022-09-11T12:03:27.393Z,27.69
2022-09-11T12:05:56.190Z,26.61
2022-09-11T12:08:24.717Z,26.60
2022-09-11T12:10:59.032Z,27.13
2022-09-11T12:13:32.354Z,27.03
2022-09-11T12:16:12.313Z,26.66
2022-09-11T12:18:42.200Z,25.88
2022-09-11T12:21:36.659Z,25.95
2022-09-11T12:24:17.638Z,25.15
2022-09-11T12:26:46.108Z,25.87
2022-09-11T12:29:51.656Z,26.27
2022-09-11T12:32:42.855Z,26.17
2022-09-11T12:35:29.698Z,25.17
2022-09-11T12:38:02.626Z,25.61
2022-09-11T12:40:39.065Z,25.22
2022-09-11T12:43:28.209Z,25.83
2022-09-11T12:45:57.037Z,25.19
2022-09-11T12:48:37.312Z,25.31
2022-09-11T12:51:07.412Z,25.16
2022-09-11T12:53:37.340Z,25.97
2022-09-11T12:56:06.741Z,27.08
2022-09-11T12:58:38.259Z,27.17
2022-09-11T13:01:18.635Z,26.83
2022-09-11T13:03:52.681Z,26.44
2022-09-11T13:06:21.419Z,26.94
2022-09-11T13:08:52.399Z,27.05
2022-09-11T13:11:45.865Z,26.48
2022-09-11T13:14:50.250Z,27.25
2022-09-11T13:17:26.198Z,26.99
2022-09-11T13:19:58.465Z,27.72
2022-09-11T13:22:28.629Z,27.63
2022-09-11T13:25:07.439Z,26.75
2022-09-11T13:27:37.567Z,27.53
2022-09-11T13:30:07.313Z,26.72
2022-09-11T13:32:36.098Z,26.41
2022-09-11T13:35:09.180Z,26.54
2022-09-11T13:37:39.489Z,26.49
2022-09-11T13:40:09.254Z,26.68
2022-09-11T13:42:37.569Z,26.24
2022-09-11T13:45:06.895Z,26.50
2022-09-11T13:47:42.112Z,26.72
2022-09-11T13:50:14.814Z,26.20
2022-09-11T13:52:44.733Z,25.84
2022-09-11T13:55:19.012Z,26.11
2022-09-11T13:57:54.921Z,26.34
2022-09-11T14:00:40.869Z,25.28
2022-09-11T14:03:18.245Z,26.31
2022-09-11T14:05:55.169Z,26.31
2022-09-11T14:08:28.150Z,25.49
2022-09-11T14:10:58.173Z,26.21
2022-09-11T14:13:33.025Z,26.13
2022-09-11T14:16:03.874Z,26.36
2022-09-11T14:18:35.919Z,26.43
2022-09-11T14:21:07.780Z,26.41
2022-09-11T14:23:43.120Z,27.66
2022-09-11T14:26:16.938Z,26.63
2022-09-11T14:28:48.844Z,26.48
2022-09-11T14:31:29.443Z,25.77
2022-09-11T14:34:15.100Z,25.20
2022-09-11T14:36:47.751Z,25.97
2022-09-11T14:39:22.304Z,25.87
2022-09-11T14:41:50.549Z,27.07
2022-09-11T14:44:19.970Z,25.96
2022-09-11T14:46:48.200Z,27.07
2022-09-11T14:49:16.699Z,27.27
2022-09-11T14:51:49.188Z,27.43
2022-09-11T14:54:18.959Z,27.41
2022-09-11T14:56:49.084Z,27.76
2022-09-11T14:59:17.811Z,26.50
2022-09-11T15:01:46.240Z,26.70
2022-09-11T15:04:19.790Z,26.73
2022-09-11T15:06:52.096Z,27.09
2022-09-11T15:09:20.503Z,27.13
2022-09-11T15:11:50.422Z,26.52
2022-09-11T15:14:32.524Z,27.47
2022-09-11T15:17:10.434Z,26.28
2022-09-11T15:19:39.012Z,26.64
2022-09-11T15:22:09.120Z,26.63
2022-09-11T15:24:37.328Z,26.74
2022-09-11T15:27:05.928Z,26.50
2022-09-11T15:29:34.703Z,25.99
2022-09-11T15:32:04.380Z,26.28
2022-09-11T15:34:33.179Z,26.71
2022-09-11T15:37:01.420Z,26.04
2022-09-11T15:39:31.156Z,26.42
2022-09-11T15:41:59.332Z,26.83
2022-09-11T15:44:28.749Z,26.60
2022-09-11T15:46:58.523Z,27.08
2022-09-11T15:49:29.281Z,27.08
2022-09-11T15:51:58.013Z,27.10
2022-09-11T15:54:26.925Z,26.90
2022-09-11T15:56:56.512Z,26.73
2022-09-11T15:59:24.842Z,27.05
2022-09-11T16:01:53.182Z,26.07
2022-09-11T16:04:22.964Z,25.97
2022-09-11T16:06:53.380Z,26.22
2022-09-11T16:09:22.927Z,25.75
2022-09-11T16:11:51.835Z,26.24
2022-09-11T16:14:23.413Z,25.66
2022-09-11T16:16:51.884Z,26.37
2022-09-11T16:19:22.242Z,25.91
2022-09-11T16:21:50.329Z,25.66
2022-09-11T16:24:18.489Z,24.96
2022-09-11T16:26:46.913Z,25.15
2022-09-11T16:29:18.036Z,25.73
2022-09-11T16:31:47.799Z,26.41
2022-09-11T16:34:17.859Z,26.52
2022-09-11T16:36:46.578Z,26.48
2022-09-11T16:39:16.225Z,26.70
2022-09-11T16:41:44.692Z,26.81
2022-09-11T16:44:15.023Z,26.62
2022-09-11T16:46:43.390Z,26.58
2022-09-11T16:49:15.895Z,26.13
2022-09-11T16:51:45.422Z,25.92
2022-09-11T16:54:13.676Z,25.46
2022-09-11T16:56:45.887Z,25.97
2022-09-11T16:59:15.667Z,25.13
2022-09-11T17:01:44.047Z,25.50
2022-09-11T17:04:13.725Z,25.37
2022-09-11T17:06:41.950Z,25.45
2022-09-11T17:09:10.223Z,25.39
2022-09-11T17:11:39.123Z,25.13
2022-09-11T17:14:08.218Z,25.09
2022-09-11T17:16:36.445Z,25.10
2022-09-11T17:19:04.664Z,25.11
2022-09-11T17:21:35.993Z,25.28
2022-09-11T17:24:05.275Z,25.43
2022-09-11T17:26:33.601Z,25.36
2022-09-11T17:29:03.525Z,25.26
2022-09-11T17:31:32.564Z,25.18
2022-09-11T17:34:00.898Z,25.07
2022-09-11T17:36:29.223Z,24.93
2022-09-11T17:38:59.323Z,25.01
2022-09-11T17:41:27.593Z,24.99
2022-09-11T17:43:55.852Z,24.36
2022-09-11T17:46:24.856Z,24.83
2022-09-11T17:48:53.149Z,23.72
2022-09-11T17:51:24.137Z,24.40
2022-09-11T17:53:55.400Z,24.26
2022-09-11T17:56:27.033Z,24.25
2022-09-11T17:58:56.699Z,24.34
2022-09-11T18:01:26.085Z,24.47
2022-09-11T18:03:56.664Z,24.07
2022-09-11T18:06:26.184Z,24.51
2022-09-11T18:08:56.719Z,24.26
2022-09-11T18:11:26.430Z,23.98
2022-09-11T18:13:54.879Z,23.56
2022-09-11T18:16:23.304Z,24.19
2022-09-11T18:18:51.614Z,24.49
2022-09-11T18:21:19.845Z,24.16
2022-09-11T18:23:49.721Z,23.96
2022-09-11T18:26:23.090Z,23.46
2022-09-11T18:28:56.695Z,23.59
2022-09-11T18:31:25.467Z,23.74
2022-09-11T18:33:55.299Z,23.21
2022-09-11T18:36:23.940Z,23.88
2022-09-11T18:38:52.447Z,23.66
2022-09-11T18:41:21.477Z,23.84
2022-09-11T18:43:50.102Z,23.40
2022-09-11T18:46:19.810Z,23.77
2022-09-11T18:48:48.527Z,23.84
2022-09-11T18:51:17.344Z,23.83
2022-09-11T18:53:48.387Z,24.20
2022-09-11T18:56:16.783Z,24.29
2022-09-11T18:58:45.459Z,24.27
2022-09-11T19:01:16.804Z,24.07
2022-09-11T19:03:47.179Z,24.02
2022-09-11T19:06:16.547Z,24.19
2022-09-11T19:08:47.535Z,23.81
2022-09-11T19:11:17.953Z,23.40
2022-09-11T19:13:48.698Z,23.26
2022-09-11T19:16:18.841Z,23.13
2022-09-11T19:18:49.121Z,23.53
2022-09-11T19:21:20.671Z,23.00
2022-09-11T19:23:50.104Z,23.33
2022-09-11T19:26:20.802Z,23.09
2022-09-11T19:28:49.856Z,23.27
2022-09-11T19:31:21.141Z,23.28
2022-09-11T19:33:51.574Z,22.94
2022-09-11T19:36:21.979Z,23.16
2022-09-11T19:38:51.544Z,22.81
2022-09-11T19:41:23.488Z,22.84
2022-09-11T19:43:54.056Z,22.80
2022-09-11T19:46:24.156Z,22.63
2022-09-11T19:48:56.765Z,22.39
2022-09-11T19:51:27.313Z,22.45
2022-09-11T19:53:56.265Z,21.79
2022-09-11T19:56:25.444Z,22.20
2022-09-11T19:58:54.271Z,22.27
2022-09-11T20:01:24.496Z,22.31
2022-09-11T20:03:55.318Z,22.32
2022-09-11T20:06:25.457Z,22.28
2022-09-11T20:09:13.339Z,22.28
2022-09-11T20:11:42.998Z,22.27
2022-09-11T20:14:12.241Z,22.13
2022-09-11T20:16:40.554Z,21.42
2022-09-11T20:19:10.510Z,21.44
2022-09-11T20:21:39.049Z,21.52
2022-09-11T20:24:07.973Z,21.57
2022-09-11T20:26:37.132Z,21.43
2022-09-11T20:29:07.885Z,21.07
2022-09-11T20:31:46.303Z,20.90
2022-09-11T20:34:17.290Z,20.89
2022-09-11T20:36:45.864Z,20.82
2022-09-11T20:39:15.067Z,21.16
2022-09-11T20:41:43.734Z,21.16
2022-09-11T20:44:12.525Z,20.65
2022-09-11T20:46:40.919Z,20.90
2022-09-11T20:49:09.253Z,20.81
2022-09-11T20:51:38.827Z,20.98
2022-09-11T20:54:07.224Z,21.05
2022-09-11T20:56:35.576Z,21.12
2022-09-11T20:59:03.864Z,20.90
2022-09-11T21:01:33.431Z,21.01
2022-09-11T21:04:04.095Z,20.87
2022-09-11T21:06:32.624Z,21.02
2022-09-11T21:09:07.844Z,20.96
2022-09-11T21:11:36.664Z,20.69
2022-09-11T21:14:05.264Z,20.30
2022-09-11T21:16:33.672Z,20.79
2022-09-11T21:19:02.670Z,20.55
2022-09-11T21:21:31.673Z,20.66
2022-09-11T21:24:02.334Z,20.65
2022-09-11T21:26:31.207Z,20.73
2022-09-11T21:29:00.551Z,20.72
2022-09-11T21:31:29.140Z,20.67
2022-09-11T21:33:57.633Z,20.54
2022-09-11T21:36:25.983Z,20.66
2022-09-11T21:38:54.326Z,20.40
2022-09-11T21:41:23.955Z,20.33
2022-09-11T21:43:52.223Z,20.24
2022-09-11T21:46:20.594Z,20.30
2022-09-11T21:48:48.977Z,20.51
2022-09-11T21:51:18.825Z,20.58
2022-09-11T21:53:48.303Z,20.42
2022-09-11T21:56:18.362Z,20.19
2022-09-11T21:58:48.226Z,20.39
2022-09-11T22:01:16.669Z,20.06
2022-09-11T22:03:45.369Z,19.99
2022-09-11T22:06:14.365Z,19.93
2022-09-11T22:08:43.624Z,20.21
2022-09-11T22:11:12.187Z,19.68
2022-09-11T22:13:40.949Z,19.70
2022-09-11T22:16:12.285Z,19.80
2022-09-11T22:18:41.216Z,20.14
2022-09-11T22:21:10.606Z,20.14
2022-09-11T22:23:38.927Z,20.01
2022-09-11T22:26:09.755Z,19.59
2022-09-11T22:28:38.466Z,19.81
2022-09-11T22:31:13.416Z,19.64
2022-09-11T22:33:42.717Z,19.56
2022-09-11T22:36:12.843Z,19.62
2022-09-11T22:38:41.337Z,19.79
2022-09-11T22:41:10.451Z,19.58
2022-09-11T22:43:38.989Z,19.53
2022-09-11T22:46:07.359Z,19.24
2022-09-11T22:48:37.234Z,19.45
2022-09-11T22:51:05.586Z,19.69
2022-09-11T22:53:34.161Z,19.62
2022-09-11T22:56:02.849Z,19.45
2022-09-11T22:58:31.620Z,19.52
2022-09-11T23:01:01.073Z,19.72
2022-09-11T23:03:29.377Z,19.75
2022-09-11T23:06:17.414Z,19.47
2022-09-11T23:08:46.930Z,19.29
2022-09-11T23:11:16.964Z,19.42
2022-09-11T23:13:47.725Z,19.62
2022-09-11T23:16:18.568Z,18.97
2022-09-11T23:18:47.096Z,19.26
2022-09-11T23:21:16.836Z,19.30
2022-09-11T23:23:45.325Z,19.05
2022-09-11T23:26:14.614Z,19.05
2022-09-11T23:28:43.111Z,19.36
2022-09-11T23:31:12.723Z,19.35
2022-09-11T23:33:41.262Z,18.40
2022-09-11T23:36:11.212Z,18.82
2022-09-11T23:38:41.180Z,18.88
2022-09-11T23:41:09.397Z,18.91
2022-09-11T23:43:37.673Z,19.26
2022-09-11T23:46:06.202Z,19.10
2022-09-11T23:48:34.623Z,19.25
2022-09-11T23:51:02.853Z,18.68
2022-09-11T23:53:31.516Z,18.86
2022-09-11T23:56:01.136Z,19.16
2022-09-11T23:58:29.336Z,18.85
